Time;durP1;ratioP1;P1;durP2;ratioP2;P2;SDS_P1;SDS_P2;PMS_P1;PMS_P2;Temp;Humidity;BMP_temperature;BMP_pressure;BME280_temperature;BME280_humidity;BME280_pressure;Samples;Min_cycle;Max_cycle;Signal;HPM_P1;HPM_P2
2023/12/21 00:01:42;;;;;;;88.00;25.33;;;;;;;;;;5035725;28;20119;-64
2023/12/21 00:04:07;;;;;;;95.37;27.77;;;;;;;;;;5036487;28;20265;-62
2023/12/21 00:06:33;;;;;;;103.28;27.08;;;;;;;;;;5036474;28;20993;-65
2023/12/21 00:08:58;;;;;;;94.38;26.88;;;;;;;;;;5038610;28;20533;-62
2023/12/21 00:11:23;;;;;;;95.17;25.63;;;;;;;;;;5034856;28;20120;-66
2023/12/21 00:13:49;;;;;;;98.45;27.45;;;;;;;;;;5036390;28;20285;-63
2023/12/21 00:16:16;;;;;;;100.57;27.00;;;;;;;;;;5033196;28;20025;-64
2023/12/21 00:18:42;;;;;;;86.47;26.38;;;;;;;;;;5040735;28;20297;-65
2023/12/21 00:21:07;;;;;;;121.40;27.52;;;;;;;;;;5036378;28;20025;-65
2023/12/21 00:23:32;;;;;;;77.50;26.77;;;;;;;;;;5036972;28;20032;-62
2023/12/21 00:25:57;;;;;;;104.30;28.42;;;;;;;;;;5028404;28;20262;-64
2023/12/21 00:28:23;;;;;;;104.70;27.93;;;;;;;;;;5036009;28;20446;-66
2023/12/21 00:30:48;;;;;;;131.95;28.92;;;;;;;;;;5037257;28;20273;-64
2023/12/21 00:33:13;;;;;;;117.10;27.77;;;;;;;;;;5035877;28;20538;-65
2023/12/21 00:35:39;;;;;;;97.95;30.00;;;;;;;;;;5027352;28;20025;-65
2023/12/21 00:38:04;;;;;;;89.50;29.05;;;;;;;;;;5037101;28;20175;-65
2023/12/21 00:40:29;;;;;;;92.57;27.98;;;;;;;;;;5035891;28;20491;-68
2023/12/21 00:42:55;;;;;;;102.28;27.42;;;;;;;;;;5034633;28;20681;-67
2023/12/21 00:45:21;;;;;;;105.53;29.00;;;;;;;;;;5041868;28;20028;-68
2023/12/21 00:47:46;;;;;;;115.85;27.33;;;;;;;;;;5040435;28;20555;-66
2023/12/21 00:50:11;;;;;;;115.28;29.98;;;;;;;;;;5034075;28;20025;-65
2023/12/21 00:52:37;;;;;;;101.60;28.95;;;;;;;;;;5023293;28;20073;-66
2023/12/21 00:55:02;;;;;;;113.88;28.80;;;;;;;;;;5015886;28;20072;-65
2023/12/21 00:57:28;;;;;;;99.10;27.35;;;;;;;;;;5020467;28;20057;-68
2023/12/21 00:59:53;;;;;;;121.72;28.75;;;;;;;;;;5017094;28;20037;-67
2023/12/21 01:02:18;;;;;;;117.87;31.27;;;;;;;;;;5018294;28;20029;-67
2023/12/21 01:04:44;;;;;;;110.97;29.25;;;;;;;;;;5019529;28;20672;-66
2023/12/21 01:07:09;;;;;;;124.45;30.70;;;;;;;;;;5017037;28;20037;-65
2023/12/21 01:09:34;;;;;;;152.38;33.90;;;;;;;;;;5021373;28;20029;-66
2023/12/21 01:12:00;;;;;;;121.97;29.73;;;;;;;;;;5026003;28;20529;-65
2023/12/21 01:14:25;;;;;;;124.32;31.40;;;;;;;;;;5019225;28;20363;-65
2023/12/21 01:16:51;;;;;;;117.10;32.28;;;;;;;;;;5021976;28;20033;-66
2023/12/21 01:19:16;;;;;;;107.15;31.67;;;;;;;;;;5016730;28;20061;-67
2023/12/21 01:21:41;;;;;;;127.82;32.83;;;;;;;;;;5015239;28;20034;-67
2023/12/21 01:24:07;;;;;;;141.63;32.53;;;;;;;;;;5016999;28;20440;-68
2023/12/21 01:26:32;;;;;;;114.10;33.07;;;;;;;;;;5015511;28;20041;-67
2023/12/21 01:28:57;;;;;;;134.73;31.50;;;;;;;;;;5014012;28;20286;-69
2023/12/21 01:31:23;;;;;;;202.57;37.75;;;;;;;;;;5019761;28;20037;-69
2023/12/21 01:33:48;;;;;;;112.05;30.38;;;;;;;;;;5021198;28;20196;-68
2023/12/21 01:36:13;;;;;;;121.25;31.13;;;;;;;;;;5016569;28;20073;-68
2023/12/21 01:38:38;;;;;;;85.13;29.00;;;;;;;;;;5019507;28;20075;-69
2023/12/21 01:41:04;;;;;;;96.50;29.70;;;;;;;;;;5021375;28;20088;-68
2023/12/21 01:43:29;;;;;;;82.40;29.93;;;;;;;;;;5019732;28;20824;-67
2023/12/21 01:45:55;;;;;;;115.32;31.35;;;;;;;;;;5024594;28;20275;-68
2023/12/21 01:48:21;;;;;;;110.38;30.38;;;;;;;;;;5025459;28;20542;-68
2023/12/21 01:50:47;;;;;;;124.03;32.90;;;;;;;;;;5022569;28;20036;-68
2023/12/21 01:53:13;;;;;;;100.50;30.58;;;;;;;;;;5040365;28;20108;-68
2023/12/21 01:55:38;;;;;;;88.88;30.42;;;;;;;;;;5051682;28;20208;-67
2023/12/21 01:58:04;;;;;;;115.97;32.70;;;;;;;;;;5050604;28;20055;-67
2023/12/21 02:00:30;;;;;;;108.57;31.17;;;;;;;;;;5065322;28;20033;-67
2023/12/21 02:02:55;;;;;;;89.95;31.30;;;;;;;;;;5041252;28;21363;-68
2023/12/21 02:05:20;;;;;;;153.63;34.47;;;;;;;;;;5024370;28;20031;-69
2023/12/21 02:07:47;;;;;;;101.20;30.83;;;;;;;;;;5041585;28;20043;-69
2023/12/21 02:10:12;;;;;;;83.45;29.30;;;;;;;;;;5038649;28;20434;-69
2023/12/21 02:12:38;;;;;;;85.75;31.20;;;;;;;;;;5041667;28;20025;-67
2023/12/21 02:15:04;;;;;;;100.75;31.77;;;;;;;-0.67;nan;100380.81;5041681;28;20040;-68
2023/12/21 02:17:32;;;;;;;110.43;30.67;;;;;;;-1.11;nan;100305.84;5038180;28;20039;-69
2023/12/21 02:19:59;;;;;;;115.07;30.95;;;;;;;-1.18;nan;100294.50;5028946;28;20025;-70
2023/12/21 02:22:26;;;;;;;101.05;31.35;;;;;;;-1.08;nan;100302.16;5038435;28;20124;-70
2023/12/21 02:24:52;;;;;;;116.30;33.83;;;;;;;-1.12;nan;100295.69;5037377;28;20024;-70
2023/12/21 02:27:17;;;;;;;110.65;32.00;;;;;;;-1.38;nan;100249.97;5036705;28;20025;-69
2023/12/21 02:29:43;;;;;;;151.43;37.28;;;;;;;-1.34;nan;100247.88;5037220;28;20036;-70
2023/12/21 02:32:08;;;;;;;100.45;30.98;;;;;;;-1.16;nan;100277.09;5038617;28;20084;-68
2023/12/21 02:34:34;;;;;;;142.18;33.03;;;;;;;-1.18;nan;100270.44;5042666;28;20052;-69
2023/12/21 02:36:59;;;;;;;100.85;32.03;;;;;;;-1.19;nan;100272.22;5040149;28;20112;-69
2023/12/21 02:39:25;;;;;;;122.28;30.05;;;;;;;-1.11;nan;100281.78;5025343;28;20028;-69
2023/12/21 02:41:52;;;;;;;116.35;30.52;;;;;;;-1.08;nan;100287.50;5036847;28;20498;-67
2023/12/21 02:44:17;;;;;;;121.60;31.65;;;;;;;-1.18;nan;100268.66;5038910;28;20079;-68
2023/12/21 02:46:43;;;;;;;104.45;30.83;;;;;;;-1.12;nan;100273.25;5037486;28;20025;-68
2023/12/21 02:49:09;;;;;;;96.75;30.40;;;;;;;-1.08;nan;100281.47;5039402;28;20041;-68
2023/12/21 02:51:34;;;;;;;132.52;33.05;;;;;;;-1.19;nan;100274.81;5036016;28;20064;-68
2023/12/21 02:53:59;;;;;;;96.65;29.70;;;;;;;-1.11;nan;100280.03;5019763;28;20039;-68
2023/12/21 02:56:25;;;;;;;97.13;30.48;;;;;;;-1.18;nan;100273.84;5038929;28;20445;-67
2023/12/21 02:58:50;;;;;;;111.93;33.35;;;;;;;-1.23;nan;100264.94;5042065;28;20056;-68
2023/12/21 03:01:16;;;;;;;133.77;31.70;;;;;;;-1.22;nan;100267.38;5043983;28;20020;-70
2023/12/21 03:03:41;;;;;;;156.63;32.30;;;;;;;-1.54;nan;100211.91;5037874;28;20116;-69
2023/12/21 03:06:07;;;;;;;98.95;31.67;;;;;;;-1.29;nan;100248.28;5028866;28;20025;-67
2023/12/21 03:08:33;;;;;;;137.52;30.02;;;;;;;-1.17;nan;100270.31;5038656;28;20092;-68
2023/12/21 03:10:59;;;;;;;154.50;32.58;;;;;;;-1.21;nan;100270.75;5036246;28;20044;-68
2023/12/21 03:13:24;;;;;;;96.50;28.40;;;;;;;-1.31;nan;100252.78;5040155;28;20124;-69
2023/12/21 03:15:49;;;;;;;135.65;30.35;;;;;;;-1.24;nan;100264.13;5039301;28;20037;-69
2023/12/21 03:18:15;;;;;;;197.95;35.25;;;;;;;-1.33;nan;100249.53;5052990;28;20024;-68
2023/12/21 03:20:40;;;;;;;161.70;31.13;;;;;;;-1.31;nan;100252.78;5040625;28;20032;-69
2023/12/21 03:23:06;;;;;;;125.70;29.77;;;;;;;-1.40;nan;100240.75;5038911;28;20544;-68
2023/12/21 03:25:31;;;;;;;158.30;31.10;;;;;;;-1.26;nan;100271.22;5035165;28;20035;-69
2023/12/21 03:27:58;;;;;;;139.25;29.60;;;;;;;-1.31;nan;100265.69;5041495;28;20064;-68
2023/12/21 03:30:23;;;;;;;178.63;32.25;;;;;;;-1.30;nan;100270.69;5039733;28;20055;-69
2023/12/21 03:32:49;;;;;;;185.10;29.20;;;;;;;-1.46;nan;100239.59;5028813;28;20064;-70
2023/12/21 03:35:15;;;;;;;166.05;33.00;;;;;;;-1.46;nan;100249.09;5036101;28;20106;-69
2023/12/21 03:37:40;;;;;;;178.75;32.03;;;;;;;-1.37;nan;100274.03;5036501;28;20067;-69
2023/12/21 03:40:07;;;;;;;143.32;32.38;;;;;;;-1.42;nan;100266.72;5037943;28;20028;-69
2023/12/21 03:42:32;;;;;;;157.60;33.17;;;;;;;-1.45;nan;100266.22;5036631;28;20430;-69
2023/12/21 03:44:57;;;;;;;102.93;28.75;;;;;;;-1.50;nan;100267.47;5037567;28;20036;-70
2023/12/21 03:47:23;;;;;;;129.25;28.25;;;;;;;-1.50;nan;100257.16;5038180;28;20053;-70
2023/12/21 03:49:48;;;;;;;133.90;30.70;;;;;;;-1.59;nan;100249.50;5036524;28;20490;-69
2023/12/21 03:52:15;;;;;;;141.75;30.15;;;;;;;-1.56;nan;100247.41;5038926;28;20057;-68
2023/12/21 03:54:40;;;;;;;136.48;29.23;;;;;;;-1.53;nan;100262.63;5041358;28;20432;-69
2023/12/21 03:57:06;;;;;;;155.80;31.10;;;;;;;-1.51;nan;100276.19;5035551;28;20087;-69
2023/12/21 03:59:32;;;;;;;193.68;36.17;;;;;;;-1.57;nan;100258.72;5033281;28;20474;-69
2023/12/21 04:01:57;;;;;;;118.65;29.35;;;;;;;-1.48;nan;100277.66;5036520;28;20598;-69
2023/12/21 04:04:23;;;;;;;150.80;31.08;;;;;;;-1.49;nan;100278.63;5038881;28;20044;-64
2023/12/21 04:06:48;;;;;;;117.72;28.08;;;;;;;-1.59;nan;100270.16;5037731;28;20025;-63
2023/12/21 04:09:14;;;;;;;147.73;30.52;;;;;;;-1.52;nan;100277.16;5034337;28;20068;-65
2023/12/21 04:11:40;;;;;;;138.07;28.70;;;;;;;-1.57;nan;100289.69;5052451;28;20021;-63
2023/12/21 04:14:05;;;;;;;156.65;32.63;;;;;;;-1.57;nan;100283.72;5026833;28;20518;-67
2023/12/21 04:16:30;;;;;;;111.25;29.20;;;;;;;-1.56;nan;100288.72;5036873;28;20513;-69
2023/12/21 04:18:56;;;;;;;116.43;30.02;;;;;;;-1.64;nan;100278.34;5037806;28;20025;-66
2023/12/21 04:21:21;;;;;;;134.68;30.63;;;;;;;-1.58;nan;100280.34;5037265;28;20029;-65
2023/12/21 04:23:47;;;;;;;154.07;34.42;;;;;;;-1.64;nan;100273.16;5022165;28;20029;-68
2023/12/21 04:26:20;;;;;;;119.00;30.70;;;;;;;-1.62;nan;100285.94;5033742;28;20021;-65
2023/12/21 04:28:47;;;;;;;132.85;30.48;;;;;;;-1.52;nan;100300.38;5026462;28;20056;-65
2023/12/21 04:31:20;;;;;;;153.32;30.88;;;;;;;-1.59;nan;100283.06;5034995;28;20021;-67
2023/12/21 04:33:49;;;;;;;105.07;31.23;;;;;;;-1.56;nan;100286.13;5033696;28;20083;-67
2023/12/21 04:36:14;;;;;;;159.27;31.70;;;;;;;-1.64;nan;100280.13;5035235;28;20504;-66
2023/12/21 04:38:40;;;;;;;152.65;32.42;;;;;;;-1.56;nan;100298.25;5039411;28;20024;-64
2023/12/21 04:41:05;;;;;;;142.32;32.08;;;;;;;-1.57;nan;100294.06;5010520;28;20937;-67
2023/12/21 04:43:31;;;;;;;136.30;31.77;;;;;;;-1.69;nan;100283.13;5037828;28;20103;-66
2023/12/21 04:45:57;;;;;;;141.68;31.27;;;;;;;-1.53;nan;100308.31;5036629;28;20029;-66
2023/12/21 04:48:22;;;;;;;147.07;32.38;;;;;;;-1.66;nan;100285.41;5041575;28;20113;-66
2023/12/21 04:50:48;;;;;;;95.70;32.47;;;;;;;-1.55;nan;100305.84;5035941;28;20129;-66
2023/12/21 04:53:13;;;;;;;132.43;31.73;;;;;;;-1.51;nan;100314.09;5038352;28;20045;-65
2023/12/21 04:55:39;;;;;;;173.32;35.08;;;;;;;-1.53;nan;100309.09;5015725;28;20022;-66
2023/12/21 04:58:04;;;;;;;161.70;33.67;;;;;;;-1.54;nan;100304.88;5017723;28;20075;-67
2023/12/21 05:00:30;;;;;;;116.85;30.60;;;;;;;-1.54;nan;100302.28;5037976;28;20103;-66
2023/12/21 05:02:57;;;;;;;110.35;33.90;;;;;;;-1.53;nan;100297.97;5048482;28;20060;-65
2023/12/21 05:05:22;;;;;;;101.25;32.28;;;;;;;-1.59;nan;100289.03;5050847;28;20033;-66
2023/12/21 05:07:48;;;;;;;95.20;31.55;;;;;;;-1.47;nan;100310.28;5037750;28;20041;-66
2023/12/21 05:10:13;;;;;;;120.10;33.92;;;;;;;-1.46;nan;100317.06;5043977;28;20063;-64
2023/12/21 05:12:39;;;;;;;125.15;32.67;;;;;;;-1.40;nan;100319.03;5056421;28;20115;-63
2023/12/21 05:15:05;;;;;;;129.52;32.92;;;;;;;-1.41;nan;100325.19;5038956;28;20075;-64
2023/12/21 05:17:30;;;;;;;147.18;33.75;;;;;;;-1.47;nan;100314.63;5038896;28;20030;-66
2023/12/21 05:19:56;;;;;;;136.77;31.13;;;;;;;-1.52;nan;100309.91;5038633;28;20028;-66
2023/12/21 05:22:22;;;;;;;124.93;31.88;;;;;;;-1.50;nan;100331.22;5038063;28;20372;-69
2023/12/21 05:24:47;;;;;;;120.13;30.75;;;;;;;-1.55;nan;100311.00;5036964;28;20370;-68
2023/12/21 05:27:13;;;;;;;145.30;32.97;;;;;;;-1.53;nan;100322.00;5039215;28;20021;-64
2023/12/21 05:29:41;;;;;;;103.00;29.85;;;;;;;-1.54;nan;100322.94;5048753;28;20037;-64
2023/12/21 05:32:07;;;;;;;111.47;29.55;;;;;;;-1.74;nan;100288.75;5033143;28;20104;-67
2023/12/21 05:34:33;;;;;;;101.40;27.40;;;;;;;-1.68;nan;100297.66;5036835;28;20029;-66
2023/12/21 05:36:59;;;;;;;111.32;29.33;;;;;;;-1.69;nan;100296.03;5038604;28;20387;-64
2023/12/21 05:39:25;;;;;;;124.60;31.08;;;;;;;-1.66;nan;100305.25;5039828;28;20021;-68
2023/12/21 05:41:50;;;;;;;133.43;28.08;;;;;;;-1.72;nan;100292.00;5037147;28;20424;-66
2023/12/21 05:44:16;;;;;;;120.82;30.00;;;;;;;-1.85;nan;100270.88;5038529;28;20036;-64
2023/12/21 05:46:42;;;;;;;118.57;31.92;;;;;;;-1.71;nan;100297.97;5022359;28;20021;-66
2023/12/21 05:49:08;;;;;;;176.10;32.60;;;;;;;-1.73;nan;100299.88;5037764;28;20530;-64
2023/12/21 05:51:34;;;;;;;150.43;34.08;;;;;;;-1.75;nan;100296.63;5035923;28;20045;-64
2023/12/21 05:53:59;;;;;;;131.43;30.42;;;;;;;-1.83;nan;100288.81;5035531;28;20515;-65
2023/12/21 05:56:25;;;;;;;87.82;29.40;;;;;;;-1.92;nan;100275.00;5039717;28;20417;-68
2023/12/21 05:58:50;;;;;;;93.90;29.45;;;;;;;-1.71;nan;100297.97;5038996;28;20462;-68
2023/12/21 06:01:16;;;;;;;146.77;34.13;;;;;;;-1.73;nan;100295.50;5040115;28;20441;-69
2023/12/21 06:03:41;;;;;;;110.38;27.80;;;;;;;-1.73;nan;100298.09;5035345;28;20110;-69
2023/12/21 06:06:06;;;;;;;97.72;29.08;;;;;;;-1.77;nan;100291.63;5033361;28;20029;-68
2023/12/21 06:08:32;;;;;;;94.18;29.35;;;;;;;-1.71;nan;100295.38;5035311;28;20489;-68
2023/12/21 06:10:57;;;;;;;94.18;28.65;;;;;;;-2.17;nan;100228.34;5039158;28;20039;-68
2023/12/21 06:13:23;;;;;;;108.57;30.55;;;;;;;-1.87;nan;100272.78;5039955;28;20188;-70
2023/12/21 06:15:48;;;;;;;84.07;28.73;;;;;;;-1.80;nan;100284.16;5036190;28;20470;-70
2023/12/21 06:18:14;;;;;;;97.45;28.80;;;;;;;-1.80;nan;100284.16;5039196;28;20152;-69
2023/12/21 06:20:39;;;;;;;83.40;28.58;;;;;;;-1.84;nan;100269.94;5040579;28;20031;-70
2023/12/21 06:23:07;;;;;;;101.88;28.27;;;;;;;-1.90;nan;100257.63;5040703;28;20036;-69
2023/12/21 06:25:33;;;;;;;89.03;28.67;;;;;;;-1.91;nan;100263.75;5027445;28;20474;-70
2023/12/21 06:27:58;;;;;;;90.28;28.70;;;;;;;-1.91;nan;100260.34;5026700;28;20060;-70
2023/12/21 06:30:24;;;;;;;77.30;29.95;;;;;;;-1.89;nan;100276.47;5039854;28;20364;-71
2023/12/21 06:32:49;;;;;;;152.90;32.72;;;;;;;-1.86;nan;100274.44;5038543;28;20056;-70
2023/12/21 06:35:17;;;;;;;83.35;30.50;;;;;;;-1.87;nan;100269.41;5042259;28;20596;-70
2023/12/21 06:37:42;;;;;;;81.68;30.80;;;;;;;-1.79;nan;100295.31;5028737;28;20029;-70
2023/12/21 06:40:09;;;;;;;84.75;31.38;;;;;;;-1.69;nan;100303.78;5039475;28;20038;-70
2023/12/21 06:42:34;;;;;;;81.03;32.33;;;;;;;-1.68;nan;100284.75;5039997;28;20075;-70
2023/12/21 06:45:00;;;;;;;93.32;31.65;;;;;;;-1.69;nan;100277.97;5057319;28;20044;-69
2023/12/21 06:47:25;;;;;;;107.00;31.55;;;;;;;-1.79;nan;100270.31;5035552;28;20032;-70
2023/12/21 06:49:51;;;;;;;94.35;31.83;;;;;;;-1.64;nan;100299.00;5036695;28;20077;-68
2023/12/21 06:52:16;;;;;;;104.20;32.90;;;;;;;-1.65;nan;100289.63;5017480;28;20125;-69
2023/12/21 06:54:42;;;;;;;96.22;32.33;;;;;;;-1.77;nan;100273.56;5019381;28;20434;-69
2023/12/21 06:57:07;;;;;;;109.82;33.47;;;;;;;-1.62;nan;100301.44;5017470;28;20128;-68
2023/12/21 06:59:32;;;;;;;97.15;34.38;;;;;;;-1.66;nan;100287.19;5019807;28;20387;-69
2023/12/21 07:01:58;;;;;;;106.70;34.13;;;;;;;-1.76;nan;100271.78;5019484;28;20061;-68
2023/12/21 07:04:23;;;;;;;123.82;35.45;;;;;;;-1.64;nan;100280.13;5018666;28;20495;-69
2023/12/21 07:06:50;;;;;;;110.57;34.15;;;;;;;-1.72;nan;100252.47;5022689;28;20038;-70
2023/12/21 07:09:17;;;;;;;99.47;33.75;;;;;;;-1.61;nan;100264.31;5016542;28;20113;-69
2023/12/21 07:11:43;;;;;;;107.70;35.50;;;;;;;-1.58;nan;100267.44;5020616;28;20037;-69
2023/12/21 07:14:08;;;;;;;102.65;39.67;;;;;;;-1.68;nan;100265.88;5016916;28;20030;-68
2023/12/21 07:16:33;;;;;;;97.30;38.00;;;;;;;-1.60;nan;100277.09;5027026;28;20033;-67
2023/12/21 07:19:00;;;;;;;195.80;43.83;;;;;;;-1.63;nan;100284.31;5026686;28;20120;-68
2023/12/21 07:21:26;;;;;;;95.78;35.25;;;;;;;-1.53;nan;100291.03;5025534;28;20026;-72
2023/12/21 07:23:51;;;;;;;170.52;44.03;;;;;;;-1.46;nan;100287.84;5022983;28;20040;-71
2023/12/21 07:26:17;;;;;;;112.85;37.28;;;;;;;-1.43;nan;100285.78;5027943;28;20036;-71
2023/12/21 07:28:42;;;;;;;149.88;41.63;;;;;;;-1.45;nan;100276.56;5015564;28;20080;-71
2023/12/21 07:31:09;;;;;;;112.47;38.92;;;;;;;-1.53;nan;100260.03;5021645;28;20719;-71
2023/12/21 07:33:35;;;;;;;109.05;37.63;;;;;;;-1.43;nan;100277.22;5020320;28;20505;-71
2023/12/21 07:36:02;;;;;;;120.95;37.20;;;;;;;-1.46;nan;100262.84;5019682;28;20043;-71
2023/12/21 07:38:28;;;;;;;136.57;38.40;;;;;;;-1.32;nan;100282.97;5019430;28;20029;-69
2023/12/21 07:40:53;;;;;;;116.80;35.17;;;;;;;-1.37;nan;100271.44;5021152;28;20488;-72
2023/12/21 07:43:18;;;;;;;102.57;36.55;;;;;;;-1.25;nan;100290.91;5018842;28;20052;-72
2023/12/21 07:45:44;;;;;;;1999.90;966.13;;;;;;;-1.30;nan;100280.22;5024251;28;20087;-71
2023/12/21 07:48:10;;;;;;;1999.90;489.13;;;;;;;-0.87;nan;100292.28;5042797;28;20030;-71
2023/12/21 07:50:35;;;;;;;124.80;45.28;;;;;;;-0.71;nan;100283.00;5036578;28;20033;-71
2023/12/21 07:53:01;;;;;;;374.85;66.75;;;;;;;-0.86;nan;100269.84;5058975;28;20039;-70
2023/12/21 07:55:26;;;;;;;145.80;49.60;;;;;;;-1.04;nan;100264.72;5047575;28;20022;-71
2023/12/21 07:57:52;;;;;;;450.70;85.30;;;;;;;-0.88;nan;100301.00;5062715;28;20017;-71
2023/12/21 08:00:18;;;;;;;126.40;44.40;;;;;;;-0.84;nan;100309.25;5064345;28;20034;-73
2023/12/21 08:02:46;;;;;;;145.02;45.42;;;;;;;-0.90;nan;100291.78;5044074;28;20025;-72
2023/12/21 08:05:12;;;;;;;125.82;43.20;;;;;;;-0.94;nan;100290.47;5021716;28;20033;-72
2023/12/21 08:07:38;;;;;;;137.70;40.50;;;;;;;-1.12;nan;100275.81;5040321;28;20036;-72
2023/12/21 08:10:04;;;;;;;166.25;42.10;;;;;;;-1.22;nan;100246.69;5036200;28;20383;-72
2023/12/21 08:12:30;;;;;;;112.32;40.42;;;;;;;-1.14;nan;100249.31;5039833;28;20486;-71
2023/12/21 08:14:55;;;;;;;101.63;39.22;;;;;;;-0.88;nan;100295.84;5040862;28;20047;-71
2023/12/21 08:17:20;;;;;;;102.00;39.67;;;;;;;-0.81;nan;100300.38;5040583;28;20033;-74
2023/12/21 08:19:46;;;;;;;112.80;40.78;;;;;;;-0.81;nan;100292.63;5023077;28;20119;-72
2023/12/21 08:22:11;;;;;;;106.78;40.38;;;;;;;-0.84;nan;100285.19;5040495;28;20024;-72
2023/12/21 08:24:37;;;;;;;108.40;39.92;;;;;;;-0.74;nan;100294.47;5025417;28;20319;-73
2023/12/21 08:27:02;;;;;;;111.57;40.75;;;;;;;-0.70;nan;100293.16;5040169;28;20025;-71
2023/12/21 08:29:28;;;;;;;108.60;39.85;;;;;;;-0.76;nan;100293.81;5039768;28;20569;-73
2023/12/21 08:31:53;;;;;;;109.05;43.15;;;;;;;-0.71;nan;100299.31;5038091;28;20025;-72
2023/12/21 08:34:22;;;;;;;115.25;44.20;;;;;;;-0.78;nan;100275.03;5042945;28;20029;-72
2023/12/21 08:36:48;;;;;;;122.43;45.10;;;;;;;-0.60;nan;100281.91;5019710;28;20131;-70
2023/12/21 08:39:13;;;;;;;113.88;44.30;;;;;;;-0.65;nan;100287.53;5038617;28;20795;-72
2023/12/21 08:41:39;;;;;;;122.45;43.38;;;;;;;-0.63;nan;100298.53;5038620;28;20112;-75
2023/12/21 08:44:04;;;;;;;124.30;42.88;;;;;;;-0.67;nan;100281.72;5037477;28;20116;-72
2023/12/21 08:46:29;;;;;;;108.47;40.92;;;;;;;-0.68;nan;100280.91;5039473;28;20036;-74
2023/12/21 08:48:55;;;;;;;105.00;42.08;;;;;;;-0.59;nan;100278.38;5036987;28;20038;-75
2023/12/21 08:51:22;;;;;;;114.03;42.83;;;;;;;-0.60;nan;100259.44;5033319;28;20033;-71
2023/12/21 08:53:47;;;;;;;105.13;41.25;;;;;;;-0.50;nan;100264.50;5054156;28;20025;-70
2023/12/21 08:56:15;;;;;;;109.82;43.67;;;;;;;-0.60;nan;100250.88;5041594;28;20064;-71
2023/12/21 08:58:40;;;;;;;111.53;41.33;;;;;;;-0.58;nan;100233.44;5018517;28;20051;-70
2023/12/21 09:01:06;;;;;;;104.72;42.67;;;;;;;-0.46;nan;100242.53;5039813;28;20021;-70
2023/12/21 09:03:31;;;;;;;101.47;39.15;;;;;;;-0.52;nan;100233.63;5038772;28;20103;-71
2023/12/21 09:05:57;;;;;;;104.45;40.90;;;;;;;-0.40;nan;100236.72;5035528;28;20033;-72
2023/12/21 09:08:23;;;;;;;107.60;42.05;;;;;;;-0.36;nan;100237.22;5026638;28;20418;-72
2023/12/21 09:10:48;;;;;;;111.90;41.28;;;;;;;-0.33;nan;100218.81;5023797;28;20033;-71
2023/12/21 09:13:13;;;;;;;115.47;42.90;;;;;;;-0.20;nan;100220.94;5037942;28;20486;-70
2023/12/21 09:15:40;;;;;;;125.68;45.63;;;;;;;-0.14;nan;100207.38;5035896;28;20550;-73
2023/12/21 09:18:06;;;;;;;130.90;47.85;;;;;;;-0.07;nan;100203.16;5018846;28;20025;-71
2023/12/21 09:20:32;;;;;;;123.47;46.90;;;;;;;0.28;nan;100227.91;5035982;28;20029;-70
2023/12/21 09:22:57;;;;;;;135.68;49.35;;;;;;;0.30;nan;100196.69;5020359;28;20040;-71
2023/12/21 09:25:22;;;;;;;130.80;48.42;;;;;;;0.59;nan;100214.31;5036487;28;20083;-69
2023/12/21 09:27:48;;;;;;;139.65;49.33;;;;;;;0.67;nan;100206.53;5038761;28;20033;-71
2023/12/21 09:30:14;;;;;;;143.15;51.15;;;;;;;0.97;nan;100211.97;5037677;28;20017;-71
2023/12/21 09:32:40;;;;;;;143.35;50.15;;;;;;;1.08;nan;100210.78;5038622;28;20031;-72
2023/12/21 09:35:06;;;;;;;148.98;50.65;;;;;;;1.08;nan;100203.00;5020210;28;20375;-72
2023/12/21 09:37:32;;;;;;;131.88;48.25;;;;;;;1.12;nan;100193.91;5036184;28;20032;-72
2023/12/21 09:39:58;;;;;;;137.32;47.53;;;;;;;1.16;nan;100196.00;5038124;28;20030;-73
2023/12/21 09:42:27;;;;;;;132.43;46.95;;;;;;;1.17;nan;100178.66;5025268;28;20040;-72
2023/12/21 09:44:53;;;;;;;131.85;46.53;;;;;;;1.31;nan;100190.91;5039808;28;20126;-73
2023/12/21 09:47:20;;;;;;;121.40;45.35;;;;;;;1.37;nan;100184.25;5018003;28;20021;-70
2023/12/21 09:49:47;;;;;;;121.05;45.22;;;;;;;1.43;nan;100180.97;5039122;28;20120;-72
2023/12/21 09:52:13;;;;;;;114.97;43.88;;;;;;;1.49;nan;100167.31;5038648;28;20067;-71
2023/12/21 09:54:42;;;;;;;102.43;42.08;;;;;;;1.52;nan;100160.97;5039688;28;20029;-70
2023/12/21 09:57:09;;;;;;;103.20;43.40;;;;;;;1.53;nan;100141.81;5040451;28;20135;-70
2023/12/21 09:59:35;;;;;;;95.75;39.72;;;;;;;1.73;nan;100150.78;5042152;28;20033;-72
2023/12/21 10:02:01;;;;;;;93.40;38.47;;;;;;;1.68;nan;100119.34;5043242;28;20377;-71
2023/12/21 10:04:26;;;;;;;87.53;38.00;;;;;;;1.64;nan;100107.69;5041222;28;20569;-71
2023/12/21 10:06:52;;;;;;;85.45;35.75;;;;;;;1.84;nan;100111.41;5042662;28;20044;-71
2023/12/21 10:09:19;;;;;;;78.13;33.75;;;;;;;2.12;nan;100131.63;5011454;28;20063;-70
2023/12/21 10:11:44;;;;;;;76.43;34.40;;;;;;;2.10;nan;100110.22;5041718;28;20037;-72
2023/12/21 10:14:17;;;;;;;69.53;32.78;;;;;;;2.27;nan;100122.06;5039728;28;20154;-71
2023/12/21 10:16:43;;;;;;;66.25;30.25;;;;;;;2.39;nan;100117.25;5028165;28;20028;-72
2023/12/21 10:19:12;;;;;;;57.47;27.30;;;;;;;2.49;nan;100117.81;5039703;28;20026;-70
2023/12/21 10:21:40;;;;;;;54.95;25.35;;;;;;;2.64;nan;100120.41;5037924;28;20056;-70
2023/12/21 10:24:07;;;;;;;38.97;18.95;;;;;;;2.69;nan;100115.47;5041512;28;20074;-72
2023/12/21 10:26:32;;;;;;;50.13;24.75;;;;;;;2.75;nan;100099.16;5041031;28;20031;-72
2023/12/21 10:28:58;;;;;;;55.97;26.73;;;;;;;2.90;nan;100095.75;5039538;28;20140;-73
2023/12/21 10:31:26;;;;;;;53.33;24.52;;;;;;;3.05;nan;100096.50;5042922;28;20039;-72
2023/12/21 10:33:52;;;;;;;48.03;24.02;;;;;;;3.04;nan;100079.28;5041117;28;20422;-73
2023/12/21 10:36:17;;;;;;;51.85;24.63;;;;;;;3.26;nan;100098.34;5039623;28;20092;-74
2023/12/21 10:38:44;;;;;;;44.63;23.27;;;;;;;3.31;nan;100088.19;5064001;28;20015;-71
2023/12/21 10:41:10;;;;;;;47.15;24.95;;;;;;;3.43;nan;100078.09;5066912;28;20014;-73
2023/12/21 10:43:36;;;;;;;49.60;22.92;;;;;;;3.39;nan;100050.81;5062921;28;20060;-72
2023/12/21 10:46:03;;;;;;;46.17;23.15;;;;;;;3.65;nan;100076.28;5060892;28;20049;-70
2023/12/21 10:48:33;;;;;;;45.05;23.02;;;;;;;3.72;nan;100071.94;5052493;28;20033;-71
2023/12/21 10:51:00;;;;;;;48.72;23.13;;;;;;;3.72;nan;100055.50;5041288;28;20037;-73
2023/12/21 10:53:29;;;;;;;39.63;20.75;;;;;;;3.81;nan;100049.97;5044838;28;20110;-73
2023/12/21 10:55:57;;;;;;;41.92;21.48;;;;;;;4.01;nan;100060.50;5039187;28;20037;-72
2023/12/21 10:58:25;;;;;;;40.55;21.45;;;;;;;4.02;nan;100054.31;5040692;28;20422;-73
2023/12/21 11:00:51;;;;;;;41.45;21.35;;;;;;;4.23;nan;100060.47;5039009;28;20955;-72
2023/12/21 11:03:19;;;;;;;44.65;22.60;;;;;;;4.26;nan;100049.63;5035300;28;20026;-73
2023/12/21 11:05:45;;;;;;;43.03;20.88;;;;;;;4.37;nan;100038.69;5037907;28;20029;-73
2023/12/21 11:08:11;;;;;;;40.88;20.40;;;;;;;4.33;nan;100019.19;5054801;28;20418;-73
2023/12/21 11:10:37;;;;;;;41.60;22.65;;;;;;;4.54;nan;100017.50;5039285;28;20024;-73
2023/12/21 11:13:03;;;;;;;43.10;20.83;;;;;;;4.61;nan;100002.69;5034198;28;20029;-72
2023/12/21 11:15:29;;;;;;;44.58;20.95;;;;;;;4.71;nan;100010.94;5038778;28;20080;-72
2023/12/21 11:18:14;;;;;;;38.63;19.30;;;;;;;4.75;nan;99998.31;5037666;28;20029;-73
2023/12/21 11:20:57;;;;;;;38.88;19.60;;;;;;;4.89;nan;99999.97;5040256;28;20028;-71
2023/12/21 11:23:22;;;;;;;38.90;19.83;;;;;;;4.99;nan;100005.59;5040259;28;20022;-70
2023/12/21 11:25:57;;;;;;;35.88;19.55;;;;;;;5.07;nan;99987.13;5041263;28;20029;-70
2023/12/21 11:28:32;;;;;;;34.17;18.42;;;;;;;5.10;nan;99959.88;5039466;28;20029;-70
2023/12/21 11:30:58;;;;;;;40.95;19.70;;;;;;;5.13;nan;99946.41;5038917;28;20086;-70
2023/12/21 11:33:30;;;;;;;33.78;18.42;;;;;;;5.28;nan;99948.81;5039754;28;20449;-72
2023/12/21 11:35:58;;;;;;;33.92;18.23;;;;;;;5.43;nan;99949.41;5038000;28;20032;-71
2023/12/21 11:38:41;;;;;;;33.80;18.13;;;;;;;5.48;nan;99935.75;5039277;28;20017;-72
2023/12/21 11:41:09;;;;;;;30.70;16.00;;;;;;;5.47;nan;99908.81;5038246;28;20666;-70
2023/12/21 11:43:34;;;;;;;29.98;16.67;;;;;;;5.59;nan;99897.75;5039494;28;20648;-68